Armuchee, GA

3:06 AM EDT on October 21, 2014 (GMT -0400)
Armuchee | Change Station
CLOSE
Current Station
Personal Weather Station
Location: Rome, GA
Elevation: 623 ft
Nearby Weather Stations

Elev 623 ft 34.36 °N, 85.13 °W | Updated 7 seconds ago

Clear
Clear
49.4 °F
Feels Like 49 °F
N
0.0
Wind Variable Wind from North
Gusts 0.0 mph

Today
High -- | Low -- °F
--% Chance of Precip.
Yesterday
High -- | Low -- °F
Precip. -- in
7:51 AM 6:58 PM
Waning Crescent, 7% visible
Pressure 30.00 in
Visibility 9.0 miles
Clouds Clear
Windchill 49 °F
Dew Point 49 °F
Humidity 99%
Rainfall 0.00 in
Snow Depth Not available.
UV 0.0 out of 12
Pollen 1.80 out of 12
Air Quality Not available.
Flu Activity Sporadic
METAR KRMG 210653Z AUTO 05003KT 9SM CLR 09/08 A3002 RMK AO2 SLP158 T00940083

More Conditions Fewer Conditions

Pressure 30.00 in
Visibility 9.0 miles
Clouds Clear
Windchill 49 °F
Dew Point 49 °F
Humidity 99%
Rainfall 0.00 in
Snow Depth Not available.
UV 0.0 out of 12
Pollen 1.80 out of 12
Air Quality Not available.
Flu Activity Sporadic
METAR KRMG 210653Z AUTO 05003KT 9SM CLR 09/08 A3002 RMK AO2 SLP158 T00940083

More Conditions Fewer Conditions

10-Day Weather Forecast

Almanac

Astronomy

Oct. 21, 2014 Rise Set
Actual Time 7:51 AM EDT 6:58 PM EDT
Civil Twilight 7:25 AM EDT 7:24 PM EDT
Nautical Twilight 6:56 AM EDT 7:53 PM EDT
Astronomical Twilight 6:27 AM EDT 8:22 PM EDT
Moon 5:40 AM EDT 5:48 PM EDT
Length of Visible Light 11h 58m
Length of Day
11h 07m
Tomorrow will be 2m 1s shorter.
Waning Crescent, 7% of the Moon is Illuminated
Today
Waning Crescent
Oct 23
New
Oct 30
First Quarter
Nov 6
Full
Nov 14
Last Quarter

Today's Extremes

State Highs State Lows

Community

WunderPhotos

Upload Photos

1,763,619 photos uploaded!

Nearby

Snow Depth

Station Depth Elevation
No new snow has been reported.

Earthquake Activity

City Distance Mag. Time & Date
No recent earthquake activity has been reported nearby.
Minimum magnitude displayed is 2.5.

Coastal Water Temperatures

Place Temperature
No Stations Reporting

Nearby Weather Stations